F/V Le Natif 2 — FKVW — position and weather

sailwx.info

Track history (hours):
 
Tides and Currents Weather Stations Pressure Air Temp Water Temp Dewpoint Dewpoint Depression Visibility Wind Speed Wind Dir Waves Ship Positions

F/V Le Natif 2

Last reported at 2014-Sep-01 16:04 UTC. Time now 2014-Sep-02 02:22 UTC.
Position N 46°42' W 001°57'.

Length 16 m.

Type: Fishing. MMSI: 228131600.

Date/timePositionNaut miles runAvg speedWind from/ knotsBaromVisibWave heightAir tempDewpointWater temp
2014-Sep-01 16:04N 46°42' W 001°57'0 0.2
2014-Sep-01 15:33N 46°42' W 001°56'0 0.1
2014-Sep-01 14:33N 46°42' W 001°57'9 9.0
2014-Sep-01 13:33N 46°38' W 002°09'4 2.8
2014-Sep-01 12:09N 46°36' W 002°13'0 0.2
2014-Sep-01 10:25N 46°36' W 002°13'4 1.3
2014-Sep-01 07:33N 46°39' W 002°14'1 1.0
2014-Sep-01 06:33N 46°40' W 002°15'3 3.5
2014-Sep-01 05:33N 46°39' W 002°10'6 6.0
2014-Sep-01 04:33N 46°40' W 002°02'4 0.2
2014-Aug-31 12:28N 46°42' W 001°56'0 0.0
2014-Aug-31 11:33N 46°42' W 001°56'0 0.2
2014-Aug-31 10:33N 46°42' W 001°57'6 6.4
2014-Aug-31 09:33N 46°39' W 002°05'5 4.5
2014-Aug-31 08:33N 46°39' W 002°12'0 0.4
2014-Aug-31 07:32N 46°39' W 002°11'1 1.2
2014-Aug-31 06:33N 46°38' W 002°12'1 0.7
2014-Aug-31 05:31N 46°38' W 002°11'8 8.1
2014-Aug-31 04:33N 46°40' W 002°00'  
2014-Aug-28 17:16N 46°42' W 001°56'0 0.1
2014-Aug-28 16:33N 46°42' W 001°56'0 0.0
2014-Aug-28 15:33N 46°42' W 001°56'8 8.0
2014-Aug-28 14:33N 46°38' W 002°07'2 2.1
2014-Aug-28 13:25N 46°37' W 002°10'1 1.1
2014-Aug-28 12:22N 46°37' W 002°11'1 1.7
2014-Aug-28 11:29N 46°37' W 002°13'1 1.3
2014-Aug-28 10:24N 46°36' W 002°11'1 0.9
2014-Aug-28 09:27N 46°36' W 002°13'4 4.8
2014-Aug-28 08:33N 46°33' W 002°10'1 0.5
2014-Aug-28 07:27N 46°32' W 002°10'2 2.1
2014-Aug-28 06:33N 46°32' W 002°07'3 3.2
2014-Aug-28 05:33N 46°34' W 002°03'9 8.5
2014-Aug-28 04:32N 46°41' W 001°58'1 0.9
2014-Aug-28 03:33N 46°42' W 001°57'0 0.0
2014-Aug-28 02:33N 46°42' W 001°57'0 0.1
2014-Aug-28 01:33N 46°42' W 001°56'0 0.0
2014-Aug-28 00:33N 46°42' W 001°56'1 1.4
2014-Aug-27 23:33N 46°41' W 001°58'2 2.1
2014-Aug-27 22:33N 46°39' W 001°60'6 5.6
2014-Aug-27 21:33N 46°34' W 002°04'4 3.7
2014-Aug-27 20:33N 46°31' W 002°08'0 0.2
2014-Aug-27 19:31N 46°31' W 002°08'1 1.2
2014-Aug-27 18:33N 46°32' W 002°06'1 0.5
2014-Aug-27 17:33N 46°32' W 002°06'1 0.8
2014-Aug-27 16:33N 46°32' W 002°07'1 0.6
2014-Aug-27 15:33N 46°32' W 002°07'3 2.6
2014-Aug-27 14:32N 46°33' W 002°11'3 2.5
2014-Aug-27 13:08N 46°36' W 002°13'2 2.6
2014-Aug-27 12:33N 46°37' W 002°15'4 2.5
2014-Aug-27 11:08N 46°40' W 002°13'2 3.6
2014-Aug-27 10:31N 46°38' W 002°15'3 3.1
2014-Aug-27 09:27N 46°35' W 002°17'2 2.2
2014-Aug-27 08:30N 46°34' W 002°19'3 3.1
2014-Aug-27 07:29N 46°34' W 002°15'2 1.7
2014-Aug-27 06:31N 46°34' W 002°12'4 4.5
2014-Aug-27 05:32N 46°35' W 002°06'9 8.8
2014-Aug-27 04:33N 46°41' W 001°57'1 0.0
2014-Aug-25 16:33N 46°42' W 001°57'0 0.1
2014-Aug-25 15:34N 46°42' W 001°56'0 0.0
2014-Aug-25 14:31N 46°42' W 001°56'3 3.2
2014-Aug-25 13:34N 46°40' W 002°00'6 6.0
2014-Aug-25 12:33N 46°37' W 002°08'4 3.5
2014-Aug-25 11:30N 46°34' W 002°11'1 0.7
2014-Aug-25 10:31N 46°35' W 002°12'1 1.1
2014-Aug-25 09:33N 46°34' W 002°11'1 0.7
2014-Aug-25 08:33N 46°34' W 002°10'1 0.7
2014-Aug-25 07:33N 46°33' W 002°09'2 2.0
2014-Aug-25 06:33N 46°34' W 002°07'1 1.0
2014-Aug-25 05:34N 46°34' W 002°06'7 7.1
2014-Aug-25 04:33N 46°40' W 001°59'1 0.1
2014-Aug-24 13:33N 46°41' W 001°59'1 0.5
2014-Aug-24 12:33N 46°41' W 001°58'  
Track history (hours):
 
Tides and Currents Weather Stations Pressure Air Temp Water Temp Dewpoint Dewpoint Depression Visibility Wind Speed Wind Dir Waves Ship Positions

F/V Le Natif 2

Last reported at 2014-Sep-01 16:04 UTC. Time now 2014-Sep-02 02:22 UTC.
Position N 46°42' W 001°57'.

Length 16 m.

Type: Fishing. MMSI: 228131600.

Date/timePositionNaut miles runAvg speedWind from/ knotsBaromVisibWave heightAir tempDewpointWater temp
2014-Sep-01 16:04N 46°42' W 001°57'0 0.2
2014-Sep-01 15:33N 46°42' W 001°56'0 0.1
2014-Sep-01 14:33N 46°42' W 001°57'9 9.0
2014-Sep-01 13:33N 46°38' W 002°09'4 2.8
2014-Sep-01 12:09N 46°36' W 002°13'0 0.2
2014-Sep-01 10:25N 46°36' W 002°13'4 1.3
2014-Sep-01 07:33N 46°39' W 002°14'1 1.0
2014-Sep-01 06:33N 46°40' W 002°15'3 3.5
2014-Sep-01 05:33N 46°39' W 002°10'6 6.0
2014-Sep-01 04:33N 46°40' W 002°02'4 0.2
2014-Aug-31 12:28N 46°42' W 001°56'0 0.0
2014-Aug-31 11:33N 46°42' W 001°56'0 0.2
2014-Aug-31 10:33N 46°42' W 001°57'6 6.4
2014-Aug-31 09:33N 46°39' W 002°05'5 4.5
2014-Aug-31 08:33N 46°39' W 002°12'0 0.4
2014-Aug-31 07:32N 46°39' W 002°11'1 1.2
2014-Aug-31 06:33N 46°38' W 002°12'1 0.7
2014-Aug-31 05:31N 46°38' W 002°11'8 8.1
2014-Aug-31 04:33N 46°40' W 002°00'  
2014-Aug-28 17:16N 46°42' W 001°56'0 0.1
2014-Aug-28 16:33N 46°42' W 001°56'0 0.0
2014-Aug-28 15:33N 46°42' W 001°56'8 8.0
2014-Aug-28 14:33N 46°38' W 002°07'2 2.1
2014-Aug-28 13:25N 46°37' W 002°10'1 1.1
2014-Aug-28 12:22N 46°37' W 002°11'1 1.7
2014-Aug-28 11:29N 46°37' W 002°13'1 1.3
2014-Aug-28 10:24N 46°36' W 002°11'1 0.9
2014-Aug-28 09:27N 46°36' W 002°13'4 4.8
2014-Aug-28 08:33N 46°33' W 002°10'1 0.5
2014-Aug-28 07:27N 46°32' W 002°10'2 2.1
2014-Aug-28 06:33N 46°32' W 002°07'3 3.2
2014-Aug-28 05:33N 46°34' W 002°03'9 8.5
2014-Aug-28 04:32N 46°41' W 001°58'1 0.9
2014-Aug-28 03:33N 46°42' W 001°57'0 0.0
2014-Aug-28 02:33N 46°42' W 001°57'0 0.1
2014-Aug-28 01:33N 46°42' W 001°56'0 0.0
2014-Aug-28 00:33N 46°42' W 001°56'1 1.4
2014-Aug-27 23:33N 46°41' W 001°58'2 2.1
2014-Aug-27 22:33N 46°39' W 001°60'6 5.6
2014-Aug-27 21:33N 46°34' W 002°04'4 3.7
2014-Aug-27 20:33N 46°31' W 002°08'0 0.2
2014-Aug-27 19:31N 46°31' W 002°08'1 1.2
2014-Aug-27 18:33N 46°32' W 002°06'1 0.5
2014-Aug-27 17:33N 46°32' W 002°06'1 0.8
2014-Aug-27 16:33N 46°32' W 002°07'1 0.6
2014-Aug-27 15:33N 46°32' W 002°07'3 2.6
2014-Aug-27 14:32N 46°33' W 002°11'3 2.5
2014-Aug-27 13:08N 46°36' W 002°13'2 2.6
2014-Aug-27 12:33N 46°37' W 002°15'4 2.5
2014-Aug-27 11:08N 46°40' W 002°13'2 3.6
2014-Aug-27 10:31N 46°38' W 002°15'3 3.1
2014-Aug-27 09:27N 46°35' W 002°17'2 2.2
2014-Aug-27 08:30N 46°34' W 002°19'3 3.1
2014-Aug-27 07:29N 46°34' W 002°15'2 1.7
2014-Aug-27 06:31N 46°34' W 002°12'4 4.5
2014-Aug-27 05:32N 46°35' W 002°06'9 8.8
2014-Aug-27 04:33N 46°41' W 001°57'1 0.0
2014-Aug-25 16:33N 46°42' W 001°57'0 0.1
2014-Aug-25 15:34N 46°42' W 001°56'0 0.0
2014-Aug-25 14:31N 46°42' W 001°56'3 3.2
2014-Aug-25 13:34N 46°40' W 002°00'6 6.0
2014-Aug-25 12:33N 46°37' W 002°08'4 3.5
2014-Aug-25 11:30N 46°34' W 002°11'1 0.7
2014-Aug-25 10:31N 46°35' W 002°12'1 1.1
2014-Aug-25 09:33N 46°34' W 002°11'1 0.7
2014-Aug-25 08:33N 46°34' W 002°10'1 0.7
2014-Aug-25 07:33N 46°33' W 002°09'2 2.0
2014-Aug-25 06:33N 46°34' W 002°07'1 1.0
2014-Aug-25 05:34N 46°34' W 002°06'7 7.1
2014-Aug-25 04:33N 46°40' W 001°59'1 0.1
2014-Aug-24 13:33N 46°41' W 001°59'1 0.5
2014-Aug-24 12:33N 46°41' W 001°58'  

Dump ship's entire track history